sensor_id;sensor_type;location;lat;lon;timestamp;pressure;altitude;pressure_sealevel;temperature;humidity
12868;BME280;33517;49.866;8.320;2023-01-31T00:00:10;101391.47;;;4.10;86.81
12868;BME280;33517;49.866;8.320;2023-01-31T00:03:02;101398.25;;;4.13;86.60
12868;BME280;33517;49.866;8.320;2023-01-31T00:05:53;101410.31;;;4.14;86.50
12868;BME280;33517;49.866;8.320;2023-01-31T00:08:46;101401.69;;;4.13;86.73
12868;BME280;33517;49.866;8.320;2023-01-31T00:11:39;101406.59;;;4.18;86.17
12868;BME280;33517;49.866;8.320;2023-01-31T00:14:31;101396.00;;;4.21;86.07
12868;BME280;33517;49.866;8.320;2023-01-31T00:17:24;101407.72;;;4.14;86.50
12868;BME280;33517;49.866;8.320;2023-01-31T00:20:16;101408.22;;;4.06;87.34
12868;BME280;33517;49.866;8.320;2023-01-31T00:23:08;101405.19;;;4.00;87.35
12868;BME280;33517;49.866;8.320;2023-01-31T00:26:08;101412.59;;;3.79;87.47
12868;BME280;33517;49.866;8.320;2023-01-31T00:29:01;101412.16;;;3.72;87.51
12868;BME280;33517;49.866;8.320;2023-01-31T00:31:53;101406.31;;;3.69;86.59
12868;BME280;33517;49.866;8.320;2023-01-31T00:34:47;101405.41;;;3.56;85.94
12868;BME280;33517;49.866;8.320;2023-01-31T00:37:39;101402.19;;;3.38;85.65
12868;BME280;33517;49.866;8.320;2023-01-31T00:40:30;101406.75;;;3.21;85.60
12868;BME280;33517;49.866;8.320;2023-01-31T00:43:22;101405.09;;;3.06;85.48
12868;BME280;33517;49.866;8.320;2023-01-31T00:46:15;101409.38;;;2.93;85.84
12868;BME280;33517;49.866;8.320;2023-01-31T00:49:07;101404.91;;;2.80;85.91
12868;BME280;33517;49.866;8.320;2023-01-31T00:52:00;101401.44;;;2.66;86.07
12868;BME280;33517;49.866;8.320;2023-01-31T00:54:52;101397.13;;;2.51;85.88
12868;BME280;33517;49.866;8.320;2023-01-31T00:57:43;101410.84;;;2.39;85.84
12868;BME280;33517;49.866;8.320;2023-01-31T01:00:35;101410.69;;;2.26;85.54
12868;BME280;33517;49.866;8.320;2023-01-31T01:03:27;101416.34;;;2.19;85.90
12868;BME280;33517;49.866;8.320;2023-01-31T01:06:19;101417.63;;;2.12;85.94
12868;BME280;33517;49.866;8.320;2023-01-31T01:09:12;101420.22;;;2.12;86.38
12868;BME280;33517;49.866;8.320;2023-01-31T01:12:04;101415.03;;;2.12;89.20
12868;BME280;33517;49.866;8.320;2023-01-31T01:14:56;101414.09;;;2.13;89.26
12868;BME280;33517;49.866;8.320;2023-01-31T01:17:48;101429.84;;;2.10;88.59
12868;BME280;33517;49.866;8.320;2023-01-31T01:20:41;101424.91;;;2.05;88.22
12868;BME280;33517;49.866;8.320;2023-01-31T01:23:33;101427.25;;;2.10;88.48
12868;BME280;33517;49.866;8.320;2023-01-31T01:26:28;101417.72;;;2.10;88.63
12868;BME280;33517;49.866;8.320;2023-01-31T01:29:20;101434.19;;;2.09;88.02
12868;BME280;33517;49.866;8.320;2023-01-31T01:32:12;101434.38;;;2.06;87.92
12868;BME280;33517;49.866;8.320;2023-01-31T01:35:04;101437.22;;;2.02;88.30
12868;BME280;33517;49.866;8.320;2023-01-31T01:37:56;101443.78;;;1.93;87.77
12868;BME280;33517;49.866;8.320;2023-01-31T01:40:48;101443.25;;;1.86;87.94
12868;BME280;33517;49.866;8.320;2023-01-31T01:43:44;101441.94;;;1.79;88.33
12868;BME280;33517;49.866;8.320;2023-01-31T01:46:38;101441.75;;;1.82;89.00
12868;BME280;33517;49.866;8.320;2023-01-31T01:49:33;101436.56;;;1.82;88.69
12868;BME280;33517;49.866;8.320;2023-01-31T01:52:28;101439.34;;;1.79;88.61
12868;BME280;33517;49.866;8.320;2023-01-31T01:55:23;101440.00;;;1.83;89.56
12868;BME280;33517;49.866;8.320;2023-01-31T01:58:21;101442.59;;;1.83;89.91
12868;BME280;33517;49.866;8.320;2023-01-31T02:01:15;101440.47;;;1.89;90.48
12868;BME280;33517;49.866;8.320;2023-01-31T02:04:11;101433.53;;;2.06;91.00
12868;BME280;33517;49.866;8.320;2023-01-31T02:07:06;101440.63;;;2.18;91.98
12868;BME280;33517;49.866;8.320;2023-01-31T02:10:02;101440.09;;;2.27;91.20
12868;BME280;33517;49.866;8.320;2023-01-31T02:12:55;101431.78;;;2.36;91.48
12868;BME280;33517;49.866;8.320;2023-01-31T02:15:47;101435.53;;;2.46;91.28
12868;BME280;33517;49.866;8.320;2023-01-31T02:18:41;101437.44;;;2.58;91.36
12868;BME280;33517;49.866;8.320;2023-01-31T02:22:03;101437.72;;;2.67;91.59
12868;BME280;33517;49.866;8.320;2023-01-31T02:32:33;101429.75;;;2.70;90.15
12868;BME280;33517;49.866;8.320;2023-01-31T02:35:37;101429.44;;;2.61;90.21
12868;BME280;33517;49.866;8.320;2023-01-31T02:38:42;101425.63;;;2.52;89.58
12868;BME280;33517;49.866;8.320;2023-01-31T02:41:44;101414.94;;;2.43;89.88
12868;BME280;33517;49.866;8.320;2023-01-31T02:44:48;101409.59;;;2.30;90.11
12868;BME280;33517;49.866;8.320;2023-01-31T02:48:05;101414.16;;;2.27;91.32
12868;BME280;33517;49.866;8.320;2023-01-31T02:51:03;101409.03;;;2.25;91.66
12868;BME280;33517;49.866;8.320;2023-01-31T02:54:02;101413.31;;;2.26;91.02
12868;BME280;33517;49.866;8.320;2023-01-31T02:56:55;101426.38;;;2.25;91.36
12868;BME280;33517;49.866;8.320;2023-01-31T02:59:47;101418.03;;;2.20;90.59
12868;BME280;33517;49.866;8.320;2023-01-31T03:02:39;101425.88;;;2.18;90.73
12868;BME280;33517;49.866;8.320;2023-01-31T03:05:32;101431.75;;;2.22;90.94
12868;BME280;33517;49.866;8.320;2023-01-31T03:08:24;101441.09;;;2.24;91.44
12868;BME280;33517;49.866;8.320;2023-01-31T03:11:16;101430.66;;;2.26;90.78
12868;BME280;33517;49.866;8.320;2023-01-31T03:14:16;101431.47;;;2.26;91.18
12868;BME280;33517;49.866;8.320;2023-01-31T03:17:13;101430.66;;;2.26;91.42
12868;BME280;33517;49.866;8.320;2023-01-31T03:20:26;101427.69;;;2.32;91.61
12868;BME280;33517;49.866;8.320;2023-01-31T03:23:23;101429.19;;;2.36;91.84
12868;BME280;33517;49.866;8.320;2023-01-31T03:26:19;101428.94;;;2.40;92.54
12868;BME280;33517;49.866;8.320;2023-01-31T03:29:14;101438.38;;;2.41;92.10
12868;BME280;33517;49.866;8.320;2023-01-31T03:32:13;101457.31;;;2.43;91.93
12868;BME280;33517;49.866;8.320;2023-01-31T03:35:09;101457.25;;;2.45;91.90
12868;BME280;33517;49.866;8.320;2023-01-31T03:38:05;101450.03;;;2.50;91.86
12868;BME280;33517;49.866;8.320;2023-01-31T03:41:07;101472.13;;;2.57;91.93
12868;BME280;33517;49.866;8.320;2023-01-31T03:44:05;101469.59;;;2.55;91.79
12868;BME280;33517;49.866;8.320;2023-01-31T03:47:05;101470.06;;;2.48;91.22
12868;BME280;33517;49.866;8.320;2023-01-31T03:50:03;101470.94;;;2.33;91.01
12868;BME280;33517;49.866;8.320;2023-01-31T03:53:01;101483.59;;;2.23;90.63
12868;BME280;33517;49.866;8.320;2023-01-31T03:55:58;101474.63;;;2.13;92.26
12868;BME280;33517;49.866;8.320;2023-01-31T03:58:56;101478.59;;;2.05;92.45
12868;BME280;33517;49.866;8.320;2023-01-31T04:01:52;101477.41;;;1.95;92.44
12868;BME280;33517;49.866;8.320;2023-01-31T04:04:48;101475.41;;;1.84;92.60
12868;BME280;33517;49.866;8.320;2023-01-31T04:07:42;101478.34;;;1.78;92.53
12868;BME280;33517;49.866;8.320;2023-01-31T04:10:34;101479.34;;;1.75;92.79
12868;BME280;33517;49.866;8.320;2023-01-31T04:13:26;101484.09;;;1.67;92.12
12868;BME280;33517;49.866;8.320;2023-01-31T04:16:19;101480.75;;;1.65;92.75
12868;BME280;33517;49.866;8.320;2023-01-31T04:19:12;101480.84;;;1.64;93.76
12868;BME280;33517;49.866;8.320;2023-01-31T04:22:04;101486.25;;;1.59;94.63
12868;BME280;33517;49.866;8.320;2023-01-31T04:24:56;101481.25;;;1.56;95.65
12868;BME280;33517;49.866;8.320;2023-01-31T04:27:48;101470.25;;;1.51;95.24
12868;BME280;33517;49.866;8.320;2023-01-31T04:30:41;101466.25;;;1.46;94.59
12868;BME280;33517;49.866;8.320;2023-01-31T04:33:34;101467.59;;;1.37;94.53
12868;BME280;33517;49.866;8.320;2023-01-31T04:36:26;101466.16;;;1.32;94.38
12868;BME280;33517;49.866;8.320;2023-01-31T04:39:18;101463.22;;;1.22;93.34
12868;BME280;33517;49.866;8.320;2023-01-31T04:42:09;101459.72;;;1.06;92.78
12868;BME280;33517;49.866;8.320;2023-01-31T04:45:01;101458.38;;;0.99;93.31
12868;BME280;33517;49.866;8.320;2023-01-31T04:47:54;101457.69;;;0.96;93.50
12868;BME280;33517;49.866;8.320;2023-01-31T04:50:47;101450.75;;;0.96;93.06
12868;BME280;33517;49.866;8.320;2023-01-31T04:53:41;101446.50;;;0.95;92.93
12868;BME280;33517;49.866;8.320;2023-01-31T04:56:33;101449.28;;;1.08;93.72
12868;BME280;33517;49.866;8.320;2023-01-31T04:59:25;101448.50;;;1.06;92.68
12868;BME280;33517;49.866;8.320;2023-01-31T05:02:17;101440.31;;;0.98;92.59
12868;BME280;33517;49.866;8.320;2023-01-31T05:05:09;101441.44;;;0.92;92.65
12868;BME280;33517;49.866;8.320;2023-01-31T05:08:03;101438.84;;;0.92;93.14
12868;BME280;33517;49.866;8.320;2023-01-31T05:10:59;101440.84;;;0.87;92.46
12868;BME280;33517;49.866;8.320;2023-01-31T05:13:51;101442.78;;;0.83;92.42
12868;BME280;33517;49.866;8.320;2023-01-31T05:16:43;101437.41;;;0.86;92.74
12868;BME280;33517;49.866;8.320;2023-01-31T05:19:36;101434.69;;;0.89;93.06
12868;BME280;33517;49.866;8.320;2023-01-31T05:22:28;101439.13;;;0.87;93.06
12868;BME280;33517;49.866;8.320;2023-01-31T05:25:21;101436.97;;;0.96;93.33
12868;BME280;33517;49.866;8.320;2023-01-31T05:28:14;101431.63;;;0.99;93.16
12868;BME280;33517;49.866;8.320;2023-01-31T05:31:07;101438.41;;;1.01;93.21
12868;BME280;33517;49.866;8.320;2023-01-31T05:33:59;101431.13;;;1.08;93.27
12868;BME280;33517;49.866;8.320;2023-01-31T05:36:51;101428.44;;;1.09;93.07
12868;BME280;33517;49.866;8.320;2023-01-31T05:39:43;101424.13;;;1.10;93.62
12868;BME280;33517;49.866;8.320;2023-01-31T05:42:36;101428.41;;;1.11;93.26
12868;BME280;33517;49.866;8.320;2023-01-31T05:45:29;101436.84;;;1.14;93.23
12868;BME280;33517;49.866;8.320;2023-01-31T05:48:21;101428.91;;;1.17;93.84
12868;BME280;33517;49.866;8.320;2023-01-31T05:51:13;101430.84;;;1.29;94.21
12868;BME280;33517;49.866;8.320;2023-01-31T05:54:05;101436.91;;;1.45;94.57
12868;BME280;33517;49.866;8.320;2023-01-31T05:56:57;101436.84;;;1.62;94.48
12868;BME280;33517;49.866;8.320;2023-01-31T05:59:50;101429.38;;;1.72;94.16
12868;BME280;33517;49.866;8.320;2023-01-31T06:02:42;101418.91;;;1.73;93.89
12868;BME280;33517;49.866;8.320;2023-01-31T06:05:34;101416.47;;;1.70;94.35
12868;BME280;33517;49.866;8.320;2023-01-31T06:08:26;101417.75;;;1.79;94.16
12868;BME280;33517;49.866;8.320;2023-01-31T06:11:18;101411.94;;;1.89;94.39
12868;BME280;33517;49.866;8.320;2023-01-31T06:14:09;101413.59;;;2.06;94.11
12868;BME280;33517;49.866;8.320;2023-01-31T06:17:03;101415.94;;;2.11;93.17
12868;BME280;33517;49.866;8.320;2023-01-31T06:19:55;101417.78;;;2.09;93.71
12868;BME280;33517;49.866;8.320;2023-01-31T06:22:46;101422.41;;;2.04;92.77
12868;BME280;33517;49.866;8.320;2023-01-31T06:25:40;101417.88;;;1.92;93.16
12868;BME280;33517;49.866;8.320;2023-01-31T06:28:32;101425.84;;;1.88;93.47
12868;BME280;33517;49.866;8.320;2023-01-31T06:31:23;101428.53;;;1.87;92.78
12868;BME280;33517;49.866;8.320;2023-01-31T06:34:17;101426.69;;;1.89;92.80
12868;BME280;33517;49.866;8.320;2023-01-31T06:37:09;101425.34;;;1.82;92.72
12868;BME280;33517;49.866;8.320;2023-01-31T06:40:01;101418.41;;;1.67;92.39
12868;BME280;33517;49.866;8.320;2023-01-31T06:42:52;101418.47;;;1.50;92.62
12868;BME280;33517;49.866;8.320;2023-01-31T06:45:44;101417.38;;;1.38;92.88
12868;BME280;33517;49.866;8.320;2023-01-31T06:48:36;101424.00;;;1.28;92.16
12868;BME280;33517;49.866;8.320;2023-01-31T06:51:30;101427.91;;;1.20;93.50
12868;BME280;33517;49.866;8.320;2023-01-31T06:54:21;101429.63;;;1.04;92.96
12868;BME280;33517;49.866;8.320;2023-01-31T06:57:13;101439.78;;;0.91;92.38
12868;BME280;33517;49.866;8.320;2023-01-31T07:00:07;101439.50;;;0.80;92.69
12868;BME280;33517;49.866;8.320;2023-01-31T07:02:59;101443.47;;;0.70;91.65
12868;BME280;33517;49.866;8.320;2023-01-31T07:05:50;101440.34;;;0.63;91.75
12868;BME280;33517;49.866;8.320;2023-01-31T07:08:44;101437.06;;;0.60;91.99
12868;BME280;33517;49.866;8.320;2023-01-31T07:11:36;101460.53;;;0.57;91.59
12868;BME280;33517;49.866;8.320;2023-01-31T07:14:28;101447.97;;;0.49;91.21
12868;BME280;33517;49.866;8.320;2023-01-31T07:17:20;101452.59;;;0.43;90.95
12868;BME280;33517;49.866;8.320;2023-01-31T07:20:12;101458.72;;;0.42;91.18
12868;BME280;33517;49.866;8.320;2023-01-31T07:23:04;101457.84;;;0.41;91.45
12868;BME280;33517;49.866;8.320;2023-01-31T07:25:57;101464.47;;;0.47;91.40
12868;BME280;33517;49.866;8.320;2023-01-31T07:28:51;101459.84;;;0.53;91.67
12868;BME280;33517;49.866;8.320;2023-01-31T07:31:43;101455.75;;;0.66;91.22
12868;BME280;33517;49.866;8.320;2023-01-31T07:34:35;101455.63;;;0.85;91.73
12868;BME280;33517;49.866;8.320;2023-01-31T07:37:27;101445.69;;;1.10;91.37
12868;BME280;33517;49.866;8.320;2023-01-31T07:40:19;101449.44;;;1.37;90.98
12868;BME280;33517;49.866;8.320;2023-01-31T07:43:13;101443.44;;;1.68;91.92
12868;BME280;33517;49.866;8.320;2023-01-31T07:46:05;101456.97;;;2.04;91.91
12868;BME280;33517;49.866;8.320;2023-01-31T07:48:59;101454.28;;;2.51;91.59
12868;BME280;33517;49.866;8.320;2023-01-31T07:51:51;101453.44;;;3.08;91.13
12868;BME280;33517;49.866;8.320;2023-01-31T07:54:43;101460.06;;;3.56;90.75
12868;BME280;33517;49.866;8.320;2023-01-31T07:57:35;101460.53;;;3.89;89.98
12868;BME280;33517;49.866;8.320;2023-01-31T08:00:28;101465.13;;;4.12;88.98
12868;BME280;33517;49.866;8.320;2023-01-31T08:03:38;101470.44;;;4.37;88.82
12868;BME280;33517;49.866;8.320;2023-01-31T08:06:31;101464.44;;;4.23;88.44
12868;BME280;33517;49.866;8.320;2023-01-31T08:09:23;101460.50;;;4.03;88.20
12868;BME280;33517;49.866;8.320;2023-01-31T08:12:15;101459.16;;;3.84;88.68
12868;BME280;33517;49.866;8.320;2023-01-31T08:15:08;101461.56;;;3.87;89.23
12868;BME280;33517;49.866;8.320;2023-01-31T08:18:01;101459.91;;;3.86;89.34
12868;BME280;33517;49.866;8.320;2023-01-31T08:20:55;101457.19;;;3.87;89.14
12868;BME280;33517;49.866;8.320;2023-01-31T08:23:48;101458.53;;;3.80;89.01
12868;BME280;33517;49.866;8.320;2023-01-31T08:26:41;101463.91;;;3.77;89.26
12868;BME280;33517;49.866;8.320;2023-01-31T08:29:33;101465.13;;;3.71;89.23
12868;BME280;33517;49.866;8.320;2023-01-31T08:32:24;101467.03;;;3.55;88.92
12868;BME280;33517;49.866;8.320;2023-01-31T08:35:18;101466.56;;;3.49;89.78
12868;BME280;33517;49.866;8.320;2023-01-31T08:38:10;101476.69;;;3.53;89.88
12868;BME280;33517;49.866;8.320;2023-01-31T08:41:01;101479.84;;;3.58;89.78
12868;BME280;33517;49.866;8.320;2023-01-31T08:43:54;101491.72;;;3.62;89.83
12868;BME280;33517;49.866;8.320;2023-01-31T08:46:47;101492.28;;;3.67;89.14
12868;BME280;33517;49.866;8.320;2023-01-31T08:49:39;101485.25;;;3.96;89.05
12868;BME280;33517;49.866;8.320;2023-01-31T08:52:32;101491.06;;;4.40;88.39
12868;BME280;33517;49.866;8.320;2023-01-31T08:55:25;101482.97;;;4.97;86.91
12868;BME280;33517;49.866;8.320;2023-01-31T08:58:17;101452.50;;;7.67;80.39
12868;BME280;33517;49.866;8.320;2023-01-31T09:01:11;101451.38;;;6.81;77.44
12868;BME280;33517;49.866;8.320;2023-01-31T09:04:03;101460.72;;;6.37;78.04
12868;BME280;33517;49.866;8.320;2023-01-31T09:06:55;101454.81;;;6.12;79.05
12868;BME280;33517;49.866;8.320;2023-01-31T09:09:48;101448.47;;;6.03;79.68
12868;BME280;33517;49.866;8.320;2023-01-31T09:12:40;101446.91;;;6.01;79.13
12868;BME280;33517;49.866;8.320;2023-01-31T09:15:32;101443.03;;;5.70;80.15
12868;BME280;33517;49.866;8.320;2023-01-31T09:18:24;101438.13;;;5.66;80.06
12868;BME280;33517;49.866;8.320;2023-01-31T09:21:18;101430.59;;;5.61;81.21
12868;BME280;33517;49.866;8.320;2023-01-31T09:24:10;101434.81;;;5.38;81.26
12868;BME280;33517;49.866;8.320;2023-01-31T09:27:03;101447.25;;;5.35;82.13
12868;BME280;33517;49.866;8.320;2023-01-31T09:29:55;101437.66;;;5.35;81.36
12868;BME280;33517;49.866;8.320;2023-01-31T09:32:47;101443.88;;;5.58;82.85
12868;BME280;33517;49.866;8.320;2023-01-31T09:35:39;101446.19;;;5.63;81.91
12868;BME280;33517;49.866;8.320;2023-01-31T09:38:31;101458.47;;;5.73;82.08
12868;BME280;33517;49.866;8.320;2023-01-31T09:41:28;101463.13;;;5.81;81.74
12868;BME280;33517;49.866;8.320;2023-01-31T09:44:25;101464.69;;;5.96;81.11
12868;BME280;33517;49.866;8.320;2023-01-31T09:47:21;101474.88;;;6.11;81.15
12868;BME280;33517;49.866;8.320;2023-01-31T09:50:20;101474.03;;;6.11;80.30
12868;BME280;33517;49.866;8.320;2023-01-31T09:53:15;101478.41;;;5.87;81.00
12868;BME280;33517;49.866;8.320;2023-01-31T09:56:31;101475.69;;;5.76;81.43
12868;BME280;33517;49.866;8.320;2023-01-31T09:59:31;101457.63;;;5.85;81.87
12868;BME280;33517;49.866;8.320;2023-01-31T10:02:40;101462.06;;;5.96;81.60
12868;BME280;33517;49.866;8.320;2023-01-31T10:05:38;101459.31;;;6.10;81.59
12868;BME280;33517;49.866;8.320;2023-01-31T10:08:39;101454.25;;;6.19;81.29
12868;BME280;33517;49.866;8.320;2023-01-31T10:11:40;101464.72;;;6.19;81.39
12868;BME280;33517;49.866;8.320;2023-01-31T10:14:39;101472.09;;;6.02;81.44
12868;BME280;33517;49.866;8.320;2023-01-31T10:17:37;101476.53;;;5.89;81.68
12868;BME280;33517;49.866;8.320;2023-01-31T10:20:34;101463.25;;;5.79;82.29
12868;BME280;33517;49.866;8.320;2023-01-31T10:23:30;101471.41;;;5.75;82.25
12868;BME280;33517;49.866;8.320;2023-01-31T10:26:27;101457.94;;;5.93;83.03
12868;BME280;33517;49.866;8.320;2023-01-31T10:29:24;101463.22;;;6.04;81.97
12868;BME280;33517;49.866;8.320;2023-01-31T10:32:23;101448.41;;;6.16;81.99
12868;BME280;33517;49.866;8.320;2023-01-31T10:35:20;101438.63;;;6.07;81.50
12868;BME280;33517;49.866;8.320;2023-01-31T10:38:18;101443.50;;;5.88;82.24
12868;BME280;33517;49.866;8.320;2023-01-31T10:41:14;101441.75;;;5.76;82.60
12868;BME280;33517;49.866;8.320;2023-01-31T10:44:19;101455.13;;;5.84;82.37
12868;BME280;33517;49.866;8.320;2023-01-31T10:47:14;101459.59;;;5.82;83.42
12868;BME280;33517;49.866;8.320;2023-01-31T10:50:13;101448.72;;;5.88;82.40
12868;BME280;33517;49.866;8.320;2023-01-31T10:53:22;101433.03;;;6.00;82.62
12868;BME280;33517;49.866;8.320;2023-01-31T10:56:23;101408.72;;;6.11;82.33
12868;BME280;33517;49.866;8.320;2023-01-31T10:59:21;101393.81;;;6.70;81.46
12868;BME280;33517;49.866;8.320;2023-01-31T11:02:18;101375.66;;;7.01;78.75
12868;BME280;33517;49.866;8.320;2023-01-31T11:05:15;101380.75;;;6.70;77.88
12868;BME280;33517;49.866;8.320;2023-01-31T11:08:21;101367.06;;;6.66;78.71
12868;BME280;33517;49.866;8.320;2023-01-31T11:11:18;101366.56;;;6.61;78.99
12868;BME280;33517;49.866;8.320;2023-01-31T11:14:17;101370.22;;;6.47;78.79
12868;BME280;33517;49.866;8.320;2023-01-31T11:17:14;101361.41;;;6.37;79.52
12868;BME280;33517;49.866;8.320;2023-01-31T11:20:21;101351.06;;;6.25;80.08
12868;BME280;33517;49.866;8.320;2023-01-31T11:23:16;101332.84;;;6.12;80.07
12868;BME280;33517;49.866;8.320;2023-01-31T11:26:12;101314.16;;;6.06;80.94
12868;BME280;33517;49.866;8.320;2023-01-31T11:29:09;101314.06;;;6.07;80.29
12868;BME280;33517;49.866;8.320;2023-01-31T11:32:05;101302.41;;;6.00;80.54
12868;BME280;33517;49.866;8.320;2023-01-31T11:35:04;101306.50;;;5.92;81.37
12868;BME280;33517;49.866;8.320;2023-01-31T11:38:00;101308.56;;;5.76;81.93
12868;BME280;33517;49.866;8.320;2023-01-31T11:40:52;101300.75;;;5.76;82.75
12868;BME280;33517;49.866;8.320;2023-01-31T11:43:44;101295.16;;;5.80;83.10
12868;BME280;33517;49.866;8.320;2023-01-31T11:46:51;101299.19;;;5.97;82.65
12868;BME280;33517;49.866;8.320;2023-01-31T11:49:46;101289.63;;;5.85;82.79
12868;BME280;33517;49.866;8.320;2023-01-31T11:52:39;101274.94;;;5.84;82.87
12868;BME280;33517;49.866;8.320;2023-01-31T11:55:36;101276.88;;;5.80;82.99
12868;BME280;33517;49.866;8.320;2023-01-31T11:58:31;101272.38;;;5.82;83.60
12868;BME280;33517;49.866;8.320;2023-01-31T12:01:25;101274.59;;;5.99;82.63
12868;BME280;33517;49.866;8.320;2023-01-31T12:04:20;101282.34;;;6.01;82.81
12868;BME280;33517;49.866;8.320;2023-01-31T12:07:21;101269.44;;;6.10;82.35
12868;BME280;33517;49.866;8.320;2023-01-31T12:10:32;101261.59;;;6.21;81.97
12868;BME280;33517;49.866;8.320;2023-01-31T12:13:26;101269.31;;;6.23;82.43
12868;BME280;33517;49.866;8.320;2023-01-31T12:16:20;101256.81;;;6.04;82.43
12868;BME280;33517;49.866;8.320;2023-01-31T12:19:23;101247.22;;;6.16;82.90
12868;BME280;33517;49.866;8.320;2023-01-31T12:22:23;101237.97;;;6.34;82.21
12868;BME280;33517;49.866;8.320;2023-01-31T12:25:23;101232.50;;;6.37;82.11
12868;BME280;33517;49.866;8.320;2023-01-31T12:28:29;101223.13;;;6.34;82.00
12868;BME280;33517;49.866;8.320;2023-01-31T12:31:32;101230.97;;;6.45;81.60
12868;BME280;33517;49.866;8.320;2023-01-31T12:34:40;101245.34;;;6.29;82.24
12868;BME280;33517;49.866;8.320;2023-01-31T12:37:44;101232.25;;;6.29;81.99
12868;BME280;33517;49.866;8.320;2023-01-31T12:40:46;101218.94;;;6.32;81.95
12868;BME280;33517;49.866;8.320;2023-01-31T12:43:55;101204.94;;;6.33;82.02
12868;BME280;33517;49.866;8.320;2023-01-31T12:47:00;101192.13;;;6.41;81.68
12868;BME280;33517;49.866;8.320;2023-01-31T12:50:10;101198.06;;;6.54;81.17
12868;BME280;33517;49.866;8.320;2023-01-31T12:53:26;101201.13;;;6.59;82.33
12868;BME280;33517;49.866;8.320;2023-01-31T12:56:29;101194.94;;;6.71;80.95
12868;BME280;33517;49.866;8.320;2023-01-31T12:59:36;101180.78;;;6.63;81.12
12868;BME280;33517;49.866;8.320;2023-01-31T13:02:38;101182.72;;;6.49;81.58
12868;BME280;33517;49.866;8.320;2023-01-31T13:05:38;101174.25;;;6.57;81.09
12868;BME280;33517;49.866;8.320;2023-01-31T13:08:32;101171.16;;;6.63;81.14
12868;BME280;33517;49.866;8.320;2023-01-31T13:11:29;101168.78;;;6.71;81.05
12868;BME280;33517;49.866;8.320;2023-01-31T13:14:28;101162.94;;;6.79;81.42
12868;BME280;33517;49.866;8.320;2023-01-31T13:17:23;101149.03;;;6.78;81.21
12868;BME280;33517;49.866;8.320;2023-01-31T13:20:22;101144.38;;;6.82;80.69
12868;BME280;33517;49.866;8.320;2023-01-31T13:23:19;101152.38;;;6.69;80.93
12868;BME280;33517;49.866;8.320;2023-01-31T13:26:18;101155.44;;;6.74;81.60
12868;BME280;33517;49.866;8.320;2023-01-31T13:29:13;101163.56;;;6.71;81.45
12868;BME280;33517;49.866;8.320;2023-01-31T13:32:11;101139.66;;;6.65;81.67
12868;BME280;33517;49.866;8.320;2023-01-31T13:35:14;101133.38;;;6.67;82.28
12868;BME280;33517;49.866;8.320;2023-01-31T13:38:13;101125.06;;;6.62;82.59
12868;BME280;33517;49.866;8.320;2023-01-31T13:41:11;101130.75;;;6.67;81.93
12868;BME280;33517;49.866;8.320;2023-01-31T13:44:11;101132.66;;;6.65;82.74
12868;BME280;33517;49.866;8.320;2023-01-31T13:47:11;101131.69;;;6.66;82.35
12868;BME280;33517;49.866;8.320;2023-01-31T13:50:08;101129.44;;;6.73;82.91
12868;BME280;33517;49.866;8.320;2023-01-31T13:53:13;101126.19;;;6.80;82.19
12868;BME280;33517;49.866;8.320;2023-01-31T13:56:09;101136.41;;;6.83;82.71
12868;BME280;33517;49.866;8.320;2023-01-31T13:59:06;101139.16;;;6.82;81.84
12868;BME280;33517;49.866;8.320;2023-01-31T14:02:00;101136.31;;;6.85;83.12
12868;BME280;33517;49.866;8.320;2023-01-31T14:05:03;101127.88;;;6.81;82.14
12868;BME280;33517;49.866;8.320;2023-01-31T14:08:30;101135.56;;;6.94;82.66
12868;BME280;33517;49.866;8.320;2023-01-31T14:11:41;101132.59;;;6.87;82.49
12868;BME280;33517;49.866;8.320;2023-01-31T14:14:37;101137.00;;;6.87;82.45
12868;BME280;33517;49.866;8.320;2023-01-31T14:17:56;101131.16;;;6.83;83.84
12868;BME280;33517;49.866;8.320;2023-01-31T14:20:50;101143.44;;;6.83;82.93
12868;BME280;33517;49.866;8.320;2023-01-31T14:23:45;101145.66;;;6.87;83.45
12868;BME280;33517;49.866;8.320;2023-01-31T14:26:50;101152.72;;;6.87;84.01
12868;BME280;33517;49.866;8.320;2023-01-31T14:29:43;101159.63;;;6.77;84.10
12868;BME280;33517;49.866;8.320;2023-01-31T14:32:38;101157.50;;;6.71;85.19
12868;BME280;33517;49.866;8.320;2023-01-31T14:42:52;101133.25;;;6.69;86.98
12868;BME280;33517;49.866;8.320;2023-01-31T14:46:08;101137.41;;;6.71;86.64
12868;BME280;33517;49.866;8.320;2023-01-31T14:49:16;101132.31;;;6.70;86.48
12868;BME280;33517;49.866;8.320;2023-01-31T14:52:25;101125.88;;;6.63;87.64
12868;BME280;33517;49.866;8.320;2023-01-31T14:55:25;101143.59;;;6.59;87.78
12868;BME280;33517;49.866;8.320;2023-01-31T14:58:24;101138.03;;;6.53;89.04
12868;BME280;33517;49.866;8.320;2023-01-31T15:01:19;101148.16;;;6.46;89.36
12868;BME280;33517;49.866;8.320;2023-01-31T15:04:18;101141.13;;;6.46;89.31
12868;BME280;33517;49.866;8.320;2023-01-31T15:07:14;101141.50;;;6.42;90.31
12868;BME280;33517;49.866;8.320;2023-01-31T15:13:53;101131.63;;;6.45;90.66
12868;BME280;33517;49.866;8.320;2023-01-31T15:16:46;101139.84;;;6.41;90.94
12868;BME280;33517;49.866;8.320;2023-01-31T15:19:43;101148.28;;;6.44;90.97
12868;BME280;33517;49.866;8.320;2023-01-31T15:22:38;101146.84;;;6.40;90.48
12868;BME280;33517;49.866;8.320;2023-01-31T15:25:34;101150.03;;;6.44;91.02
12868;BME280;33517;49.866;8.320;2023-01-31T15:28:27;101164.56;;;6.37;91.74
12868;BME280;33517;49.866;8.320;2023-01-31T15:31:27;101154.19;;;6.35;92.16
12868;BME280;33517;49.866;8.320;2023-01-31T15:34:25;101159.09;;;6.29;92.72
12868;BME280;33517;49.866;8.320;2023-01-31T15:37:20;101156.22;;;6.21;92.58
12868;BME280;33517;49.866;8.320;2023-01-31T15:40:19;101156.34;;;6.19;93.55
12868;BME280;33517;49.866;8.320;2023-01-31T15:43:20;101158.59;;;6.24;94.19
12868;BME280;33517;49.866;8.320;2023-01-31T15:46:19;101157.78;;;6.23;94.29
12868;BME280;33517;49.866;8.320;2023-01-31T15:49:25;101148.53;;;6.19;94.56